createdAt,value
2018-04-27T00:00:15.266Z,99.99
2018-04-27T00:01:23.996Z,99.99
2018-04-27T00:02:32.743Z,99.99
2018-04-27T00:03:41.480Z,99.99
2018-04-27T00:04:50.206Z,99.99
2018-04-27T00:05:58.952Z,99.99
2018-04-27T00:07:07.978Z,99.99
2018-04-27T00:08:16.987Z,99.99
2018-04-27T00:09:25.744Z,99.99
2018-04-27T00:10:34.496Z,99.99
2018-04-27T00:11:43.229Z,99.99
2018-04-27T00:12:52.268Z,99.99
2018-04-27T00:14:01.292Z,99.99
2018-04-27T00:15:10.036Z,99.99
2018-04-27T00:16:18.781Z,99.99
2018-04-27T00:17:27.503Z,99.99
2018-04-27T00:18:36.242Z,99.99
2018-04-27T00:19:44.991Z,99.99
2018-04-27T00:20:53.721Z,99.99
2018-04-27T00:22:02.456Z,99.99
2018-04-27T00:23:11.481Z,99.99
2018-04-27T00:24:20.226Z,99.99
2018-04-27T00:25:29.264Z,99.99
2018-04-27T00:26:38.292Z,99.99
2018-04-27T00:27:47.297Z,99.99
2018-04-27T00:28:56.044Z,99.99
2018-04-27T00:30:04.768Z,99.99
2018-04-27T00:31:13.504Z,99.99
2018-04-27T00:32:22.254Z,99.99
2018-04-27T00:33:31.257Z,99.99
2018-04-27T00:34:39.992Z,99.99
2018-04-27T00:35:48.739Z,99.99
2018-04-27T00:36:57.751Z,99.99
2018-04-27T00:38:06.480Z,99.99
2018-04-27T00:39:15.512Z,99.99
2018-04-27T00:40:24.256Z,99.99
2018-04-27T00:41:32.982Z,99.99
2018-04-27T00:42:41.726Z,99.99
2018-04-27T00:43:50.458Z,99.99
2018-04-27T00:44:59.480Z,99.99
2018-04-27T00:46:08.216Z,99.99
2018-04-27T00:47:16.940Z,99.99
2018-04-27T00:48:25.694Z,99.99
2018-04-27T00:49:34.435Z,99.99
2018-04-27T00:50:43.156Z,99.99
2018-04-27T00:51:52.174Z,99.99
2018-04-27T00:53:00.920Z,99.99
2018-04-27T00:54:09.644Z,99.99
2018-04-27T00:55:18.660Z,99.99
2018-04-27T00:56:27.411Z,99.99
2018-04-27T00:57:36.143Z,99.99
2018-04-27T00:58:44.878Z,99.99
2018-04-27T00:59:53.605Z,99.99
2018-04-27T01:01:02.351Z,99.99
2018-04-27T01:02:11.098Z,99.99
2018-04-27T01:03:19.822Z,99.99
2018-04-27T01:04:28.558Z,99.99
2018-04-27T01:05:37.314Z,99.99
2018-04-27T01:06:46.038Z,99.99
2018-04-27T01:07:54.778Z,99.99
2018-04-27T01:09:03.523Z,99.99
2018-04-27T01:10:12.256Z,99.99
2018-04-27T01:11:20.983Z,99.99
2018-04-27T01:12:29.733Z,99.99
2018-04-27T01:13:38.475Z,99.99
2018-04-27T01:14:47.475Z,99.99
2018-04-27T01:15:56.225Z,99.99
2018-04-27T01:17:04.967Z,99.99
2018-04-27T01:18:13.692Z,99.99
2018-04-27T01:19:22.440Z,99.99
2018-04-27T01:20:31.182Z,99.99
2018-04-27T01:21:39.907Z,99.99
2018-04-27T01:22:48.643Z,99.99
2018-04-27T01:23:57.667Z,99.99
2018-04-27T01:25:06.957Z,99.99
2018-04-27T01:26:15.693Z,99.99
2018-04-27T01:27:24.426Z,99.99
2018-04-27T01:28:33.175Z,99.99
2018-04-27T01:29:41.915Z,99.99
2018-04-27T01:30:50.644Z,99.99
2018-04-27T01:31:59.380Z,99.99
2018-04-27T01:33:08.130Z,99.99
2018-04-27T01:34:17.130Z,99.99
2018-04-27T01:35:25.867Z,99.99
2018-04-27T01:36:34.615Z,99.99
2018-04-27T01:37:43.345Z,99.99
2018-04-27T01:38:52.074Z,99.99
2018-04-27T01:40:00.819Z,99.99
2018-04-27T01:41:09.558Z,99.99
2018-04-27T01:42:18.569Z,99.99
2018-04-27T01:43:27.296Z,99.99
2018-04-27T01:44:36.029Z,99.99
2018-04-27T01:45:44.779Z,99.99
2018-04-27T01:46:53.507Z,99.99
2018-04-27T01:48:02.242Z,99.99
2018-04-27T01:49:11.269Z,99.99
2018-04-27T01:50:20.008Z,99.99
2018-04-27T01:51:29.009Z,99.99
2018-04-27T01:52:37.759Z,99.99
2018-04-27T01:53:46.499Z,99.99
2018-04-27T01:54:55.226Z,99.99
2018-04-27T01:56:04.258Z,99.99
2018-04-27T01:57:12.992Z,99.99
2018-04-27T01:58:22.309Z,99.99
2018-04-27T01:59:31.045Z,99.99
2018-04-27T02:00:39.770Z,99.99
2018-04-27T02:01:48.517Z,99.99
2018-04-27T02:02:57.262Z,99.99
2018-04-27T02:04:05.985Z,99.99
2018-04-27T02:05:14.999Z,99.99
2018-04-27T02:06:23.759Z,99.99
2018-04-27T02:07:32.764Z,99.99
2018-04-27T02:08:41.501Z,99.99
2018-04-27T02:09:50.223Z,99.99
2018-04-27T02:10:58.896Z,99.99
2018-04-27T02:12:07.586Z,99.99
2018-04-27T02:13:16.234Z,99.99
2018-04-27T02:14:24.882Z,99.99
2018-04-27T02:15:33.526Z,99.99
2018-04-27T02:16:42.415Z,99.99
2018-04-27T02:17:51.055Z,99.99
2018-04-27T02:18:59.972Z,99.99
2018-04-27T02:20:08.863Z,99.99
2018-04-27T02:21:17.504Z,99.99
2018-04-27T02:22:26.149Z,99.99
2018-04-27T02:23:34.784Z,99.99
2018-04-27T02:24:43.409Z,99.99
2018-04-27T02:25:52.108Z,99.99
2018-04-27T02:27:00.959Z,99.99
2018-04-27T02:28:09.610Z,99.99
2018-04-27T02:29:18.237Z,99.99
2018-04-27T02:30:26.875Z,99.99
2018-04-27T02:31:35.534Z,99.99
2018-04-27T02:32:44.427Z,99.99
2018-04-27T02:33:53.323Z,99.99
2018-04-27T02:35:01.975Z,99.99
2018-04-27T02:36:11.159Z,99.99
2018-04-27T02:37:19.785Z,99.99
2018-04-27T02:38:28.440Z,99.99
2018-04-27T02:39:37.348Z,99.99
2018-04-27T02:40:46.006Z,99.99
2018-04-27T02:41:54.625Z,99.99
2018-04-27T02:43:03.265Z,99.99
2018-04-27T02:44:12.185Z,99.99
2018-04-27T02:45:21.358Z,99.99
2018-04-27T02:46:30.252Z,99.99
2018-04-27T02:47:38.904Z,99.99
2018-04-27T02:48:47.548Z,99.99
2018-04-27T02:49:56.443Z,99.99
2018-04-27T02:51:05.084Z,99.99
2018-04-27T02:52:13.729Z,99.99
2018-04-27T02:53:22.356Z,99.99
2018-04-27T02:54:30.999Z,99.99
2018-04-27T02:55:39.634Z,99.99
2018-04-27T02:56:48.551Z,99.99
2018-04-27T02:57:57.199Z,99.99
2018-04-27T02:59:05.824Z,99.99
2018-04-27T03:00:14.731Z,99.99
2018-04-27T03:01:23.373Z,99.99
2018-04-27T03:02:32.005Z,99.99
2018-04-27T03:03:40.647Z,99.99
2018-04-27T03:04:49.309Z,99.99
2018-04-27T03:05:58.203Z,99.99
2018-04-27T03:07:06.842Z,99.99
2018-04-27T03:08:15.760Z,99.99
2018-04-27T03:09:24.389Z,99.99
2018-04-27T03:10:33.019Z,99.99
2018-04-27T03:11:41.940Z,99.99
2018-04-27T03:12:50.583Z,99.99
2018-04-27T03:13:59.213Z,99.99
2018-04-27T03:15:07.861Z,99.99
2018-04-27T03:16:16.767Z,99.99
2018-04-27T03:17:25.394Z,99.99
2018-04-27T03:18:34.041Z,99.99
2018-04-27T03:19:42.949Z,99.99
2018-04-27T03:20:51.577Z,99.99
2018-04-27T03:22:00.482Z,99.99
2018-04-27T03:23:09.400Z,99.99
2018-04-27T03:24:18.292Z,99.99
2018-04-27T03:25:26.940Z,99.99
2018-04-27T03:26:35.567Z,99.99
2018-04-27T03:27:44.210Z,99.99
2018-04-27T03:28:53.124Z,99.99
2018-04-27T03:30:02.016Z,99.99
2018-04-27T03:31:10.928Z,99.99
2018-04-27T03:32:19.577Z,99.99
2018-04-27T03:33:28.206Z,99.99
2018-04-27T03:34:36.842Z,99.99
2018-04-27T03:35:45.497Z,99.99
2018-04-27T03:36:54.127Z,99.99
2018-04-27T03:38:02.760Z,99.99
2018-04-27T03:39:11.398Z,99.99
2018-04-27T03:40:20.045Z,99.99
2018-04-27T03:41:28.695Z,99.99
2018-04-27T03:42:37.325Z,99.99
2018-04-27T03:43:45.960Z,99.99
2018-04-27T03:44:54.613Z,99.99
2018-04-27T03:46:03.247Z,99.99
2018-04-27T03:47:11.877Z,99.99
2018-04-27T03:48:20.528Z,99.99
2018-04-27T03:49:29.163Z,99.99
2018-04-27T03:50:37.791Z,99.99
2018-04-27T03:51:46.506Z,99.99
2018-04-27T03:52:55.088Z,99.99
2018-04-27T03:54:03.722Z,99.99
2018-04-27T03:55:12.359Z,99.99
2018-04-27T03:56:20.986Z,99.99
2018-04-27T03:57:29.639Z,99.99
2018-04-27T03:58:38.273Z,99.99
2018-04-27T03:59:46.901Z,99.99
2018-04-27T04:00:55.551Z,99.99
2018-04-27T04:02:04.825Z,99.99
2018-04-27T04:03:13.455Z,99.99
2018-04-27T04:04:22.361Z,99.99
2018-04-27T04:05:31.006Z,99.99
2018-04-27T04:06:39.632Z,99.99
2018-04-27T04:07:48.276Z,99.99
2018-04-27T04:08:57.440Z,99.99
2018-04-27T04:10:06.092Z,99.99
2018-04-27T04:11:14.734Z,99.99
2018-04-27T04:12:23.359Z,99.99
2018-04-27T04:13:32.005Z,99.99
2018-04-27T04:14:40.647Z,99.99
2018-04-27T04:15:49.277Z,99.99
2018-04-27T04:16:57.914Z,99.99
2018-04-27T04:18:06.564Z,99.99
2018-04-27T04:19:15.196Z,99.99
2018-04-27T04:20:23.836Z,99.99
2018-04-27T04:21:32.485Z,99.99
2018-04-27T04:22:41.116Z,99.99
2018-04-27T04:23:49.762Z,99.99
2018-04-27T04:24:58.650Z,99.99
2018-04-27T04:26:07.292Z,99.99
2018-04-27T04:27:15.940Z,99.99
2018-04-27T04:28:24.567Z,99.99
2018-04-27T04:29:33.468Z,99.99
2018-04-27T04:30:42.119Z,99.99
2018-04-27T04:31:50.750Z,99.99
2018-04-27T04:32:59.385Z,99.99
2018-04-27T04:34:08.035Z,99.99
2018-04-27T04:35:16.672Z,99.99
2018-04-27T04:36:25.298Z,99.99
2018-04-27T04:37:34.210Z,99.99
2018-04-27T04:38:42.844Z,99.99
2018-04-27T04:39:51.494Z,99.99
2018-04-27T04:41:00.404Z,99.99
2018-04-27T04:42:09.299Z,99.99
2018-04-27T04:43:17.953Z,99.99
2018-04-27T04:44:26.589Z,99.99
2018-04-27T04:45:35.504Z,99.99
2018-04-27T04:46:44.146Z,99.99
2018-04-27T04:47:52.788Z,99.99
2018-04-27T04:49:01.413Z,99.99
2018-04-27T04:50:10.062Z,99.99
2018-04-27T04:51:18.712Z,99.99
2018-04-27T04:52:27.448Z,99.99
2018-04-27T04:53:35.981Z,99.99
2018-04-27T04:54:44.606Z,99.99
2018-04-27T04:55:53.258Z,99.99
2018-04-27T04:57:01.900Z,99.99
2018-04-27T04:58:10.526Z,99.99
2018-04-27T04:59:19.168Z,99.99
2018-04-27T05:00:27.813Z,99.99
2018-04-27T05:01:36.441Z,99.99
2018-04-27T05:02:45.174Z,99.99
2018-04-27T05:03:53.730Z,99.99
2018-04-27T05:05:02.357Z,99.99
2018-04-27T05:06:11.251Z,99.99
2018-04-27T05:07:19.901Z,99.99
2018-04-27T05:08:28.535Z,99.99
2018-04-27T05:09:37.163Z,99.99
2018-04-27T05:10:45.823Z,99.99
2018-04-27T05:11:54.886Z,99.99
2018-04-27T05:13:03.515Z,99.99
2018-04-27T05:14:12.165Z,99.99
2018-04-27T05:15:20.808Z,99.99
2018-04-27T05:16:29.437Z,99.99
2018-04-27T05:17:38.084Z,99.99
2018-04-27T05:18:46.986Z,99.99
2018-04-27T05:19:55.615Z,99.99
2018-04-27T05:21:04.258Z,99.99
2018-04-27T05:22:12.890Z,99.99
2018-04-27T05:23:21.544Z,99.99
2018-04-27T05:24:30.183Z,99.99
2018-04-27T05:25:38.811Z,99.99
2018-04-27T05:26:47.722Z,99.99
2018-04-27T05:27:56.373Z,99.99
2018-04-27T05:29:04.996Z,99.99
2018-04-27T05:30:13.641Z,99.99
2018-04-27T05:31:22.293Z,99.99
2018-04-27T05:32:30.924Z,99.99
2018-04-27T05:33:39.558Z,99.99
2018-04-27T05:34:48.208Z,99.99
2018-04-27T05:35:56.844Z,99.99
2018-04-27T05:37:05.490Z,99.99
2018-04-27T05:38:14.119Z,99.99
2018-04-27T05:39:22.759Z,99.99
2018-04-27T05:40:31.486Z,99.99
2018-04-27T05:41:40.050Z,99.99
2018-04-27T05:42:48.689Z,99.99
2018-04-27T05:43:57.341Z,99.99
2018-04-27T05:45:05.979Z,99.99
2018-04-27T05:46:14.611Z,99.99
2018-04-27T05:47:23.541Z,99.99
2018-04-27T05:48:32.711Z,99.99
2018-04-27T05:49:41.336Z,99.99
2018-04-27T05:50:49.985Z,99.99
2018-04-27T05:51:58.625Z,99.99
2018-04-27T05:53:07.277Z,99.99
2018-04-27T05:54:15.938Z,99.99
2018-04-27T05:55:24.819Z,99.99
2018-04-27T05:56:33.471Z,99.99
2018-04-27T05:57:42.110Z,99.99
2018-04-27T05:58:50.734Z,99.99
2018-04-27T05:59:59.388Z,99.99
2018-04-27T06:01:08.027Z,99.99
2018-04-27T06:02:16.658Z,99.99
2018-04-27T06:03:25.301Z,99.99
2018-04-27T06:04:34.002Z,99.99
2018-04-27T06:05:43.222Z,99.99
2018-04-27T06:06:51.863Z,99.99
2018-04-27T06:08:00.757Z,99.99
2018-04-27T06:09:09.429Z,99.99
2018-04-27T06:10:18.043Z,99.99
2018-04-27T06:11:26.673Z,99.99
2018-04-27T06:12:35.323Z,99.99
2018-04-27T06:13:44.230Z,99.99
2018-04-27T06:14:52.861Z,99.99
2018-04-27T06:16:01.503Z,99.99
2018-04-27T06:17:10.478Z,99.99
2018-04-27T06:18:19.104Z,99.99
2018-04-27T06:19:27.743Z,99.99
2018-04-27T06:20:36.383Z,99.99
2018-04-27T06:21:45.031Z,99.99
2018-04-27T06:22:53.675Z,99.99
2018-04-27T06:24:02.572Z,99.99
2018-04-27T06:25:11.475Z,99.99
2018-04-27T06:26:20.127Z,99.99
2018-04-27T06:27:28.762Z,99.99
2018-04-27T06:28:37.399Z,99.99
2018-04-27T06:29:46.051Z,99.99
2018-04-27T06:30:54.682Z,99.98
2018-04-27T06:32:03.583Z,99.88
2018-04-27T06:33:12.237Z,99.98
2018-04-27T06:34:20.879Z,99.88
2018-04-27T06:35:29.529Z,99.99
2018-04-27T06:36:38.160Z,99.99
2018-04-27T06:37:47.072Z,99.99
2018-04-27T06:38:55.726Z,99.99
2018-04-27T06:40:04.356Z,99.65
2018-04-27T06:41:12.994Z,98.22
2018-04-27T06:42:21.639Z,98.41
2018-04-27T06:43:30.280Z,97.74
2018-04-27T06:44:38.909Z,97.27
2018-04-27T06:45:47.559Z,97.08
2018-04-27T06:46:56.467Z,96.7
2018-04-27T06:48:05.095Z,96.79
2018-04-27T06:49:13.746Z,96.41
2018-04-27T06:50:22.384Z,96.03
2018-04-27T06:51:31.084Z,95.46
2018-04-27T06:52:39.676Z,95.89
2018-04-27T06:53:48.305Z,95.79
2018-04-27T06:54:56.955Z,95.51
2018-04-27T06:56:05.600Z,95.22
2018-04-27T06:57:14.229Z,95.12
2018-04-27T06:58:22.879Z,95.32
2018-04-27T06:59:31.558Z,94.56
2018-04-27T07:00:40.159Z,94.17
2018-04-27T07:01:48.801Z,94.08
2018-04-27T07:02:57.722Z,93.79
2018-04-27T07:04:06.357Z,94.37
2018-04-27T07:05:15.073Z,94.27
2018-04-27T07:06:23.654Z,92.94
2018-04-27T07:07:32.297Z,91.7
2018-04-27T07:08:40.929Z,93.41
2018-04-27T07:09:49.582Z,93.79
2018-04-27T07:10:58.219Z,93.41
2018-04-27T07:12:06.851Z,93.74
2018-04-27T07:13:15.503Z,93.6
2018-04-27T07:14:24.160Z,92.98
2018-04-27T07:15:32.790Z,92.13
2018-04-27T07:16:41.441Z,92.41
2018-04-27T07:17:50.089Z,91.36
2018-04-27T07:18:58.730Z,91.36
2018-04-27T07:20:07.629Z,90.79
2018-04-27T07:21:16.261Z,90.6
2018-04-27T07:22:24.913Z,91.55
2018-04-27T07:23:33.560Z,91.17
2018-04-27T07:24:42.191Z,90.89
2018-04-27T07:25:50.892Z,89.65
2018-04-27T07:26:59.489Z,89.65
2018-04-27T07:28:08.120Z,89.89
2018-04-27T07:29:16.767Z,89.79
2018-04-27T07:30:25.429Z,89.22
2018-04-27T07:31:34.061Z,89.4
2018-04-27T07:32:42.699Z,90.03
2018-04-27T07:33:51.346Z,89.79
2018-04-27T07:35:00.264Z,89.6
2018-04-27T07:36:08.917Z,90.08
2018-04-27T07:37:17.549Z,90.36
2018-04-27T07:38:26.192Z,90.26
2018-04-27T07:39:34.854Z,88.74
2018-04-27T07:40:44.069Z,88.93
2018-04-27T07:41:52.978Z,88.84
2018-04-27T07:43:01.896Z,88.26
2018-04-27T07:44:10.536Z,88.17
2018-04-27T07:45:19.262Z,89.03
2018-04-27T07:46:27.823Z,89.31
2018-04-27T07:47:36.462Z,88.26
2018-04-27T07:48:45.117Z,87.69
2018-04-27T07:49:53.740Z,88.07
2018-04-27T07:51:02.384Z,87.69
2018-04-27T07:52:11.036Z,87.88
2018-04-27T07:53:19.673Z,87.31
2018-04-27T07:54:28.307Z,86.93
2018-04-27T07:55:36.964Z,86.65
2018-04-27T07:56:45.603Z,86.45
2018-04-27T07:57:54.231Z,86.45
2018-04-27T07:59:02.887Z,86.26
2018-04-27T08:00:11.536Z,87.54
2018-04-27T08:01:20.431Z,87.54
2018-04-27T08:02:29.087Z,87.26
2018-04-27T08:03:38.385Z,86.49
2018-04-27T08:04:47.039Z,86.4
2018-04-27T08:05:55.677Z,85.73
2018-04-27T08:07:04.573Z,83.92
2018-04-27T08:08:13.226Z,83.92
2018-04-27T08:09:21.875Z,84.3
2018-04-27T08:10:30.506Z,84.01
2018-04-27T08:11:39.157Z,82.78
2018-04-27T08:12:47.803Z,82.59
2018-04-27T08:13:56.437Z,82.78
2018-04-27T08:15:05.084Z,82.11
2018-04-27T08:16:13.745Z,83.06
2018-04-27T08:17:22.387Z,82.78
2018-04-27T08:18:31.040Z,82.01
2018-04-27T08:19:39.670Z,82.11
2018-04-27T08:20:48.320Z,82.59
2018-04-27T08:21:57.243Z,83.29
2018-04-27T08:23:05.895Z,82.43
2018-04-27T08:24:14.808Z,83.48
2018-04-27T08:25:23.461Z,83.48
2018-04-27T08:26:32.094Z,83.01
2018-04-27T08:27:40.732Z,83.29
2018-04-27T08:28:49.389Z,82.72
2018-04-27T08:29:58.023Z,82.24
2018-04-27T08:31:06.660Z,81.77
2018-04-27T08:32:15.307Z,81.1
2018-04-27T08:33:23.954Z,81.48
2018-04-27T08:34:32.610Z,81.67
2018-04-27T08:35:41.508Z,80.91
2018-04-27T08:36:50.158Z,79.57
2018-04-27T08:37:58.814Z,78.91
2018-04-27T08:39:07.457Z,79.14
2018-04-27T08:40:16.096Z,79.43
2018-04-27T08:41:25.013Z,79.14
2018-04-27T08:42:33.651Z,79.23
2018-04-27T08:43:42.370Z,78.56
2018-04-27T08:44:50.941Z,77.23
2018-04-27T08:45:59.857Z,77.03
2018-04-27T08:47:08.501Z,78.09
2018-04-27T08:48:17.139Z,78.28
2018-04-27T08:49:25.773Z,77.17
2018-04-27T08:50:34.542Z,77.36
2018-04-27T08:51:43.071Z,76.88
2018-04-27T08:52:51.705Z,75.83
2018-04-27T08:54:00.361Z,76.31
2018-04-27T08:55:09.011Z,75.45
2018-04-27T08:56:17.644Z,75.83
2018-04-27T08:57:26.296Z,76.03
2018-04-27T08:58:34.947Z,75.64
2018-04-27T08:59:43.844Z,75.93
2018-04-27T09:00:52.493Z,74.98
2018-04-27T09:02:01.148Z,74.98
2018-04-27T09:03:10.042Z,76.31
2018-04-27T09:04:18.687Z,76.21
2018-04-27T09:05:27.345Z,75.01
2018-04-27T09:06:35.981Z,74.24
2018-04-27T09:07:44.618Z,73.48
2018-04-27T09:08:53.285Z,74.53
2018-04-27T09:10:02.451Z,74.24
2018-04-27T09:11:11.082Z,73.86
2018-04-27T09:12:19.739Z,74.63
2018-04-27T09:13:28.387Z,75.01
2018-04-27T09:14:37.021Z,75.01
2018-04-27T09:15:46.200Z,75.01
2018-04-27T09:16:54.837Z,74.15
2018-04-27T09:18:03.492Z,73.29
2018-04-27T09:19:12.404Z,72.62
2018-04-27T09:20:21.035Z,72.53
2018-04-27T09:21:29.693Z,73.19
2018-04-27T09:22:38.337Z,73.48
2018-04-27T09:23:46.973Z,74.15
2018-04-27T09:24:55.623Z,73.33
2018-04-27T09:26:04.279Z,73.39
2018-04-27T09:27:12.907Z,72.56
2018-04-27T09:28:21.556Z,72.08
2018-04-27T09:29:30.483Z,70.94
2018-04-27T09:30:39.383Z,73.52
2018-04-27T09:31:48.041Z,71.89
2018-04-27T09:32:56.663Z,71.42
2018-04-27T09:34:05.327Z,70.65
2018-04-27T09:35:13.983Z,71.22
2018-04-27T09:36:22.879Z,71.99
2018-04-27T09:37:31.521Z,72.08
2018-04-27T09:38:40.181Z,71.89
2018-04-27T09:39:48.818Z,71.22
2018-04-27T09:40:57.513Z,70.56
2018-04-27T09:42:06.169Z,71.93
2018-04-27T09:43:14.812Z,70.75
2018-04-27T09:44:23.454Z,70.56
2018-04-27T09:45:32.477Z,71.16
2018-04-27T09:46:41.187Z,71.93
2018-04-27T09:47:50.388Z,70.21
2018-04-27T09:48:59.288Z,69.25
2018-04-27T09:50:07.934Z,70.4
2018-04-27T09:51:17.126Z,69.35
2018-04-27T09:52:26.003Z,69.73
2018-04-27T09:53:34.640Z,68.77
2018-04-27T09:54:43.296Z,69.25
2018-04-27T09:55:51.988Z,69.64
2018-04-27T09:57:00.623Z,69.06
2018-04-27T09:58:09.284Z,70.97
2018-04-27T09:59:18.037Z,70.68
2018-04-27T10:00:26.833Z,70.5
2018-04-27T10:01:35.474Z,69.29
2018-04-27T10:02:44.116Z,69.57
2018-04-27T10:03:52.792Z,69.29
2018-04-27T10:05:01.477Z,69.38
2018-04-27T10:06:10.413Z,69.48
2018-04-27T10:07:19.068Z,69.38
2018-04-27T10:08:27.718Z,69.09
2018-04-27T10:09:36.353Z,69.57
2018-04-27T10:10:45.002Z,70.34
2018-04-27T10:11:53.925Z,70.43
2018-04-27T10:13:02.562Z,67.85
2018-04-27T10:14:11.210Z,69.19
2018-04-27T10:15:19.848Z,69.6
2018-04-27T10:16:28.513Z,69.13
2018-04-27T10:17:37.677Z,68.84
2018-04-27T10:18:46.313Z,69.99
2018-04-27T10:19:54.968Z,69.13
2018-04-27T10:21:03.906Z,69.6
2018-04-27T10:22:12.538Z,70.95
2018-04-27T10:23:21.190Z,69.13
2018-04-27T10:24:29.848Z,68.94
2018-04-27T10:25:38.486Z,68.27
2018-04-27T10:26:47.131Z,66.25
2018-04-27T10:27:55.785Z,68.27
2018-04-27T10:29:04.427Z,66.64
2018-04-27T10:30:13.079Z,66.45
2018-04-27T10:31:21.715Z,67.79
2018-04-27T10:32:30.365Z,67.79
2018-04-27T10:33:39.024Z,66.74
2018-04-27T10:34:47.653Z,67.25
2018-04-27T10:35:56.302Z,67.11
2018-04-27T10:37:05.239Z,67.44
2018-04-27T10:38:13.883Z,67.69
2018-04-27T10:39:22.521Z,65.81
2018-04-27T10:40:31.187Z,65.3
2018-04-27T10:41:40.092Z,66.54
2018-04-27T10:42:48.728Z,67.5
2018-04-27T10:43:57.382Z,67.6
2018-04-27T10:45:06.030Z,68.65
2018-04-27T10:46:14.689Z,68.27
2018-04-27T10:47:23.325Z,67.79
2018-04-27T10:48:31.966Z,68.97
2018-04-27T10:49:40.627Z,68.87
2018-04-27T10:50:49.835Z,66.77
2018-04-27T10:51:58.467Z,66.67
2018-04-27T10:53:07.127Z,67.15
2018-04-27T10:54:15.773Z,65.42
2018-04-27T10:55:24.412Z,67.41
2018-04-27T10:56:33.063Z,67.6
2018-04-27T10:57:41.726Z,67.11
2018-04-27T10:58:50.362Z,67.69
2018-04-27T10:59:59.011Z,67.88
2018-04-27T11:01:07.938Z,66.83
2018-04-27T11:02:16.576Z,67.21
2018-04-27T11:03:25.277Z,66.67
2018-04-27T11:04:33.880Z,66.83
2018-04-27T11:05:42.525Z,66.86
2018-04-27T11:06:51.166Z,67.15
2018-04-27T11:07:59.822Z,67.72
2018-04-27T11:09:08.469Z,67.44
2018-04-27T11:10:17.103Z,68.01
2018-04-27T11:11:25.763Z,67.05
2018-04-27T11:12:34.408Z,65.62
2018-04-27T11:13:43.327Z,65.05
2018-04-27T11:14:51.965Z,64.56
2018-04-27T11:16:00.606Z,66.19
2018-04-27T11:17:09.264Z,66.38
2018-04-27T11:18:17.910Z,66.22
2018-04-27T11:19:26.547Z,65.42
2018-04-27T11:20:35.205Z,65.26
2018-04-27T11:21:43.854Z,65.17
2018-04-27T11:22:52.491Z,65.46
2018-04-27T11:24:01.148Z,63.92
2018-04-27T11:25:09.804Z,63.45
2018-04-27T11:26:18.439Z,64.89
2018-04-27T11:27:27.088Z,64.89
2018-04-27T11:28:35.998Z,64.31
2018-04-27T11:29:44.652Z,65.17
2018-04-27T11:30:53.302Z,65.17
2018-04-27T11:32:01.937Z,65.08
2018-04-27T11:33:10.595Z,66.13
2018-04-27T11:34:19.515Z,66.13
2018-04-27T11:35:28.152Z,64.89
2018-04-27T11:36:37.066Z,63.92
2018-04-27T11:37:45.726Z,63.16
2018-04-27T11:38:54.360Z,64.02
2018-04-27T11:40:03.007Z,64.12
2018-04-27T11:41:11.936Z,64.92
2018-04-27T11:42:20.573Z,63.06
2018-04-27T11:43:29.225Z,64.31
2018-04-27T11:44:38.127Z,64.89
2018-04-27T11:45:46.787Z,64.89
2018-04-27T11:46:55.439Z,66.13
2018-04-27T11:48:04.074Z,65.49
2018-04-27T11:49:12.724Z,63.76
2018-04-27T11:50:21.394Z,63.96
2018-04-27T11:51:30.300Z,62.62
2018-04-27T11:52:39.211Z,62.52
2018-04-27T11:53:47.863Z,62.33
2018-04-27T11:54:56.512Z,63.29
2018-04-27T11:56:05.415Z,61.56
2018-04-27T11:57:14.066Z,63.26
2018-04-27T11:58:22.712Z,64.02
2018-04-27T11:59:31.372Z,64.69
2018-04-27T12:00:40.013Z,64.89
2018-04-27T12:01:49.020Z,62.81
2018-04-27T12:02:57.616Z,61.56
2018-04-27T12:04:06.266Z,62.52
2018-04-27T12:05:14.900Z,64.05
2018-04-27T12:06:23.565Z,63.96
2018-04-27T12:07:32.214Z,64.25
2018-04-27T12:08:40.853Z,63.09
2018-04-27T12:09:49.507Z,64.25
2018-04-27T12:10:58.160Z,63.38
2018-04-27T12:12:06.804Z,62.23
2018-04-27T12:13:15.454Z,61.21
2018-04-27T12:14:24.091Z,60.63
2018-04-27T12:15:33.017Z,60.15
2018-04-27T12:16:41.968Z,58.91
2018-04-27T12:17:50.607Z,58.81
2018-04-27T12:18:59.263Z,59.77
2018-04-27T12:20:08.183Z,60.44
2018-04-27T12:21:16.814Z,60.35
2018-04-27T12:22:25.461Z,60.53
2018-04-27T12:23:34.123Z,59.77
2018-04-27T12:24:42.755Z,60.41
2018-04-27T12:25:51.671Z,60.31
2018-04-27T12:27:00.319Z,60.79
2018-04-27T12:28:08.986Z,61.66
2018-04-27T12:29:17.623Z,63.09
2018-04-27T12:30:26.262Z,65.17
2018-04-27T12:31:35.304Z,64.12
2018-04-27T12:32:43.832Z,62.49
2018-04-27T12:33:52.475Z,62.2
2018-04-27T12:35:01.123Z,60.99
2018-04-27T12:36:09.780Z,61.75
2018-04-27T12:37:18.423Z,61.56
2018-04-27T12:38:27.065Z,58.71
2018-04-27T12:39:35.725Z,58.71
2018-04-27T12:40:44.642Z,56.41
2018-04-27T12:41:53.296Z,56.6
2018-04-27T12:43:01.935Z,57.56
2018-04-27T12:44:10.579Z,59
2018-04-27T12:45:19.239Z,60.05
2018-04-27T12:46:27.881Z,60.15
2018-04-27T12:47:36.524Z,59.58
2018-04-27T12:48:45.181Z,59.09
2018-04-27T12:49:53.827Z,58.97
2018-04-27T12:51:02.466Z,59.64
2018-04-27T12:52:11.163Z,60.89
2018-04-27T12:53:20.075Z,61.56
2018-04-27T12:54:28.977Z,61.37
2018-04-27T12:55:37.902Z,60.03
2018-04-27T12:56:47.091Z,59.36
2018-04-27T12:57:55.738Z,58.69
2018-04-27T12:59:04.729Z,58.69
2018-04-27T13:00:13.414Z,59.74
2018-04-27T13:01:22.054Z,58.87
2018-04-27T13:02:30.696Z,59.06
2018-04-27T13:03:39.359Z,59.06
2018-04-27T13:04:48.001Z,59.06
2018-04-27T13:05:56.645Z,58.2
2018-04-27T13:07:05.313Z,58.01
2018-04-27T13:08:13.959Z,58.62
2018-04-27T13:09:22.597Z,58.71
2018-04-27T13:10:31.256Z,57.95
2018-04-27T13:11:39.902Z,57.75
2018-04-27T13:12:48.561Z,56.51
2018-04-27T13:13:57.206Z,55.77
2018-04-27T13:15:06.141Z,56.63
2018-04-27T13:16:14.801Z,55.67
2018-04-27T13:17:23.708Z,55
2018-04-27T13:18:32.352Z,55.86
2018-04-27T13:19:41.011Z,54.3
2018-04-27T13:20:49.666Z,56.22
2018-04-27T13:21:58.302Z,55.45
2018-04-27T13:23:06.960Z,56.7
2018-04-27T13:24:15.613Z,58.01
2018-04-27T13:25:24.260Z,56.48
2018-04-27T13:26:33.275Z,56.86
2018-04-27T13:27:42.281Z,59.36
2018-04-27T13:28:50.940Z,60.5
2018-04-27T13:29:59.591Z,59.74
2018-04-27T13:31:08.229Z,59.93
2018-04-27T13:32:16.882Z,59.36
2018-04-27T13:33:25.539Z,58.52
2018-04-27T13:34:34.209Z,57.65
2018-04-27T13:35:42.831Z,57.85
2018-04-27T13:36:51.486Z,55.74
2018-04-27T13:38:00.126Z,55.64
2018-04-27T13:39:08.777Z,55.74
2018-04-27T13:40:17.419Z,56.22
2018-04-27T13:41:26.341Z,55.47
2018-04-27T13:42:35.001Z,54.04
2018-04-27T13:43:43.900Z,54.71
2018-04-27T13:44:52.555Z,53.66
2018-04-27T13:46:01.213Z,53.94
2018-04-27T13:47:09.854Z,54.42
2018-04-27T13:48:18.501Z,53.85
2018-04-27T13:49:27.694Z,54.33
2018-04-27T13:50:36.337Z,55.1
2018-04-27T13:51:44.984Z,55.47
2018-04-27T13:52:53.648Z,55.19
2018-04-27T13:54:02.551Z,56.15
2018-04-27T13:55:11.192Z,55.77
2018-04-27T13:56:19.886Z,56.15
2018-04-27T13:57:28.503Z,55.1
2018-04-27T13:58:37.397Z,55.19
2018-04-27T13:59:46.055Z,56.53
2018-04-27T14:00:54.713Z,56.63
2018-04-27T14:02:03.349Z,55.86
2018-04-27T14:03:12.002Z,55.86
2018-04-27T14:04:20.661Z,55.96
2018-04-27T14:05:29.313Z,55.47
2018-04-27T14:06:38.225Z,55.57
2018-04-27T14:07:46.884Z,54.33
2018-04-27T14:08:55.528Z,55.67
2018-04-27T14:10:04.181Z,53.17
2018-04-27T14:11:12.876Z,51.35
2018-04-27T14:12:21.470Z,51.83
2018-04-27T14:13:30.127Z,53.34
2018-04-27T14:14:38.769Z,54.21
2018-04-27T14:15:47.418Z,54.39
2018-04-27T14:16:56.088Z,54.3
2018-04-27T14:18:04.726Z,54.13
2018-04-27T14:19:13.372Z,53.66
2018-04-27T14:20:22.031Z,54.33
2018-04-27T14:21:30.731Z,55.47
2018-04-27T14:22:39.325Z,55.19
2018-04-27T14:23:47.980Z,54.33
2018-04-27T14:24:56.892Z,54.33
2018-04-27T14:26:05.824Z,54.35
2018-04-27T14:27:14.738Z,55.29
2018-04-27T14:28:23.649Z,54.61
2018-04-27T14:29:32.572Z,53.94
2018-04-27T14:30:41.215Z,54.13
2018-04-27T14:31:49.855Z,55.64
2018-04-27T14:32:58.515Z,56.51
2018-04-27T14:34:07.171Z,56.79
2018-04-27T14:35:15.804Z,57.65
2018-04-27T14:36:24.461Z,57.75
2018-04-27T14:37:33.115Z,56.98
2018-04-27T14:38:41.765Z,56.86
2018-04-27T14:39:50.408Z,57.34
2018-04-27T14:40:59.088Z,59.55
2018-04-27T14:42:07.707Z,58.14
2018-04-27T14:43:16.376Z,54.97
2018-04-27T14:44:25.010Z,55.55
2018-04-27T14:45:33.662Z,54.58